Terminal Aerodrome Forecast
Issued by NWS Caribou, ME

Home | Current Version | Previous Version | Text Only | Print | Product List | Glossary On
Versions: 1 2 3 4 5 6 7 8 9 10 11 12 13 14 15 16 17 18 19 20 21 22 23 24 25 26 27 28 29 30
000
FTUS41 KCAR 221748
TAFCAR
TAF
KCAR 221748Z 2218/2318 VRB03KT P6SM OVC007
     FM221900 17004KT P6SM SCT007 OVC015
     FM222200 VRB03KT P6SM SCT010 OVC025
     FM230200 16006KT P6SM SCT007 OVC035
     FM230500 17005KT P6SM OVC006
     FM231100 15005KT 3SM BR SCT004 OVC010=

USA.gov is the U.S. government's official web portal to all federal, state and local government web resources and services.